Time;durP1;ratioP1;P1;durP2;ratioP2;P2;SDS_P1;SDS_P2;PMS_P1;PMS_P2;Temp;Humidity;BMP_temperature;BMP_pressure;BME280_temperature;BME280_humidity;BME280_pressure;Samples;Min_cycle;Max_cycle;Signal;HPM_P1;HPM_P2
2023/12/15 00:04:21;;;;;;;26.95;5.75;;;;;;;-2.61;100.00;101087.97;10411686;28;20511;-68
2023/12/15 00:09:23;;;;;;;29.25;5.95;;;;;;;-2.68;100.00;101068.34;10380868;28;20042;-68
2023/12/15 00:14:24;;;;;;;16.27;4.97;;;;;;;-2.57;100.00;101067.91;10372191;28;20053;-68
2023/12/15 00:19:25;;;;;;;29.60;5.30;;;;;;;-2.87;100.00;101005.03;10371832;28;20052;-69
2023/12/15 00:24:26;;;;;;;32.78;6.25;;;;;;;-2.63;100.00;101048.19;10372543;28;20050;-68
2023/12/15 00:29:26;;;;;;;23.25;6.03;;;;;;;-2.66;100.00;101048.34;10371524;28;20465;-68
2023/12/15 00:34:27;;;;;;;27.38;6.30;;;;;;;-2.77;100.00;101022.78;10371292;28;20046;-68
2023/12/15 00:39:30;;;;;;;24.25;5.40;;;;;;;-2.87;100.00;100995.50;10371426;28;20128;-68
2023/12/15 00:44:32;;;;;;;43.83;7.20;;;;;;;-2.86;100.00;100989.38;10388728;28;20046;-68
2023/12/15 00:49:33;;;;;;;37.47;6.05;;;;;;;-2.88;100.00;100985.16;10412048;28;20497;-68
2023/12/15 00:54:34;;;;;;;22.42;6.05;;;;;;;-2.83;100.00;100993.59;10411549;28;20053;-68
2023/12/15 00:59:35;;;;;;;31.25;4.45;;;;;;;-2.80;100.00;100990.88;10409860;28;20128;-68
2023/12/15 01:04:36;;;;;;;35.47;7.05;;;;;;;-2.83;100.00;100994.44;10411353;28;20048;-70
2023/12/15 01:09:37;;;;;;;35.90;7.05;;;;;;;-2.80;100.00;100990.88;10410647;28;20044;-68
2023/12/15 01:14:38;;;;;;;46.33;6.75;;;;;;;-2.76;100.00;100980.25;10411032;28;20049;-68
2023/12/15 01:19:39;;;;;;;30.88;6.07;;;;;;;-2.71;100.00;100994.81;10410110;28;20140;-68
2023/12/15 01:24:39;;;;;;;23.50;5.93;;;;;;;-2.99;100.00;100944.88;10410132;28;20114;-68
2023/12/15 01:29:40;;;;;;;31.45;5.68;;;;;;;-2.95;100.00;100981.97;10410902;28;20195;-68
2023/12/15 01:34:41;;;;;;;29.92;6.20;;;;;;;-2.62;100.00;101026.47;10396924;28;20049;-68
2023/12/15 01:39:41;;;;;;;29.75;5.90;;;;;;;-2.52;100.00;101045.94;10409630;28;20050;-68
2023/12/15 01:44:43;;;;;;;20.80;5.32;;;;;;;-2.81;100.00;100990.03;10410279;28;20120;-69
2023/12/15 01:49:46;;;;;;;28.10;6.15;;;;;;;-2.79;100.00;100990.78;10409593;28;20049;-68
2023/12/15 01:54:47;;;;;;;31.60;6.65;;;;;;;-2.38;100.00;101052.31;10408773;28;20060;-68
2023/12/15 01:59:49;;;;;;;29.92;6.45;;;;;;;-2.46;100.00;101044.84;10409823;28;20041;-68
2023/12/15 02:04:50;;;;;;;29.67;6.43;;;;;;;-2.46;100.00;101024.03;10407622;28;20037;-68
2023/12/15 02:09:50;;;;;;;27.17;5.60;;;;;;;-2.50;100.00;101027.69;10391009;28;20048;-68
2023/12/15 02:14:51;;;;;;;32.92;6.25;;;;;;;-2.43;100.00;101023.88;10408406;28;20054;-68
2023/12/15 02:19:52;;;;;;;34.30;6.28;;;;;;;-2.46;100.00;101036.19;10368854;28;20038;-68
2023/12/15 02:24:53;;;;;;;27.23;6.30;;;;;;;-2.54;100.00;101036.56;10368360;28;20046;-68
2023/12/15 02:29:53;;;;;;;29.33;5.97;;;;;;;-2.53;100.00;101066.84;10367614;28;20049;-69
2023/12/15 02:34:56;;;;;;;21.55;5.90;;;;;;;-2.44;100.00;101065.59;10366947;28;20041;-68
2023/12/15 02:39:58;;;;;;;20.05;5.75;;;;;;;-2.44;100.00;101066.44;10381309;28;20048;-69
2023/12/15 02:45:00;;;;;;;21.77;4.85;;;;;;;-2.30;100.00;101095.31;10395913;28;20252;-71
2023/12/15 02:50:01;;;;;;;23.65;5.40;;;;;;;-2.24;100.00;101095.94;10406322;28;20057;-71
2023/12/15 02:55:02;;;;;;;23.52;5.07;;;;;;;-2.52;100.00;101043.34;10405756;28;20045;-70
2023/12/15 03:00:03;;;;;;;20.70;5.28;;;;;;;-2.19;100.00;101099.19;10406286;28;20420;-70
2023/12/15 03:05:04;;;;;;;32.38;6.25;;;;;;;-2.50;100.00;101052.88;10407649;28;20557;-70
2023/12/15 03:10:05;;;;;;;24.88;6.00;;;;;;;-2.48;100.00;101057.09;10407461;28;20041;-70
2023/12/15 03:15:07;;;;;;;32.53;6.75;;;;;;;-2.14;100.00;101107.66;10407429;28;20103;-74
2023/12/15 03:20:08;;;;;;;26.75;6.30;;;;;;;-2.13;100.00;101096.31;10406610;28;20562;-70
2023/12/15 03:25:09;;;;;;;21.05;6.68;;;;;;;-2.24;100.00;101106.34;10413007;28;20045;-70
2023/12/15 03:30:10;;;;;;;28.17;5.63;;;;;;;-2.19;100.00;101109.59;10414276;28;20090;-70
2023/12/15 03:35:11;;;;;;;24.50;5.80;;;;;;;-2.35;100.00;101073.84;10413535;28;20049;-70
2023/12/15 03:40:12;;;;;;;24.23;6.28;;;;;;;-2.58;100.00;101024.56;10414109;28;20041;-70
2023/12/15 03:45:13;;;;;;;26.10;5.82;;;;;;;-2.54;100.00;101032.19;10413745;28;20044;-70
2023/12/15 03:50:13;;;;;;;21.67;6.22;;;;;;;-2.25;100.00;101079.47;10413550;28;20057;-70
2023/12/15 03:55:14;;;;;;;23.38;5.53;;;;;;;-2.31;100.00;101057.16;10413596;28;20106;-70
2023/12/15 04:00:16;;;;;;;30.75;5.63;;;;;;;-2.32;100.00;101050.28;10414122;28;20043;-70
2023/12/15 04:05:17;;;;;;;27.90;6.90;;;;;;;-2.27;100.00;101070.03;10403416;28;20037;-69
2023/12/15 04:10:18;;;;;;;36.90;5.88;;;;;;;-2.25;100.00;101078.63;10366187;28;20042;-73
2023/12/15 04:15:19;;;;;;;32.10;5.78;;;;;;;-2.50;100.00;101042.47;10370035;28;20052;-71
2023/12/15 04:20:20;;;;;;;29.52;6.03;;;;;;;-2.48;100.00;101041.47;10371357;28;20112;-70
2023/12/15 04:25:21;;;;;;;24.77;6.03;;;;;;;-2.26;100.00;101072.59;10438948;28;20130;-72
2023/12/15 04:30:21;;;;;;;25.48;5.80;;;;;;;-2.46;100.00;101054.41;10584339;27;20048;-69
2023/12/15 04:35:23;;;;;;;22.60;6.07;;;;;;;-2.59;100.00;101035.91;10584238;28;20043;-72
2023/12/15 04:40:24;;;;;;;22.95;5.50;;;;;;;-2.46;100.00;101065.66;10583950;28;20035;-71
2023/12/15 04:45:25;;;;;;;28.63;6.50;;;;;;;-2.31;100.00;101079.75;10585326;28;20039;-70
2023/12/15 04:50:26;;;;;;;24.83;5.57;;;;;;;-2.12;100.00;101105.81;10485716;28;20069;-73
2023/12/15 04:55:26;;;;;;;31.17;6.70;;;;;;;-2.08;100.00;101108.22;10395107;28;20462;-71
2023/12/15 05:00:27;;;;;;;33.78;6.60;;;;;;;-2.43;100.00;101029.09;10410143;28;20049;-71
2023/12/15 05:05:28;;;;;;;25.52;7.15;;;;;;;-2.30;100.00;101060.63;10412253;28;20041;-71
2023/12/15 05:10:29;;;;;;;27.23;6.13;;;;;;;-1.92;100.00;101110.97;10410433;28;20041;-71
2023/12/15 05:15:29;;;;;;;21.40;5.55;;;;;;;-1.78;100.00;101110.34;10411644;28;20041;-71
2023/12/15 05:20:31;;;;;;;22.73;6.32;;;;;;;-1.79;100.00;101089.59;10410233;28;20049;-71
2023/12/15 05:25:32;;;;;;;27.23;5.78;;;;;;;-2.13;100.00;101029.47;10410361;28;20045;-70
2023/12/15 05:30:33;;;;;;;23.83;5.25;;;;;;;-1.66;100.00;101083.72;10410468;28;20404;-70
2023/12/15 05:35:34;;;;;;;18.60;5.57;;;;;;;-1.58;100.00;101091.19;10410299;28;20050;-71
2023/12/15 05:40:34;;;;;;;24.45;5.57;;;;;;;-1.49;100.00;101088.16;10409353;28;20037;-71
2023/12/15 05:45:35;;;;;;;18.95;4.45;;;;;;;-1.46;100.00;101084.56;10409704;28;20374;-71
2023/12/15 05:50:36;;;;;;;21.15;4.25;;;;;;;-1.50;100.00;101052.56;10409794;28;20061;-71
2023/12/15 05:55:37;;;;;;;18.38;3.97;;;;;;;-1.34;100.00;101067.50;10408905;28;20048;-70
2023/12/15 06:00:37;;;;;;;12.20;3.90;;;;;;;-1.28;100.00;101112.34;10409444;28;20041;-71
2023/12/15 06:05:38;;;;;;;17.52;3.60;;;;;;;-1.17;100.00;101098.78;10408763;28;20038;-73
2023/12/15 06:10:41;;;;;;;13.80;3.83;;;;;;;-1.11;100.00;101100.25;10409002;28;20184;-72
2023/12/15 06:15:41;;;;;;;12.40;3.95;;;;;;;-1.11;100.00;101088.06;10407078;28;20041;-72
2023/12/15 06:20:42;;;;;;;13.23;3.20;;;;;;;-1.03;100.00;101072.88;10408979;28;20045;-70
2023/12/15 06:25:44;;;;;;;12.68;3.10;;;;;;;-0.88;100.00;101065.22;10408726;28;20042;-71
2023/12/15 06:30:44;;;;;;;10.40;2.50;;;;;;;-1.10;100.00;101028.97;10408437;28;20041;-70
2023/12/15 06:35:45;;;;;;;10.98;2.67;;;;;;;-0.85;100.00;101067.69;10408354;28;20037;-71
2023/12/15 06:40:46;;;;;;;10.20;2.45;;;;;;;-0.87;100.00;101080.78;10408245;28;20164;-71
2023/12/15 06:45:47;;;;;;;7.97;2.35;;;;;;;-0.89;100.00;101079.19;10407638;28;20037;-71
2023/12/15 06:50:47;;;;;;;15.43;3.17;;;;;;;-0.85;100.00;101104.19;10407672;28;20099;-70
2023/12/15 06:55:48;;;;;;;12.23;3.28;;;;;;;-0.82;100.00;101085.78;10406199;28;20056;-70
2023/12/15 07:00:49;;;;;;;16.08;3.75;;;;;;;-0.74;100.00;101078.44;10407795;28;20037;-71
2023/12/15 07:05:50;;;;;;;16.38;3.50;;;;;;;-0.67;100.00;101069.34;10406957;28;20041;-71
2023/12/15 07:10:51;;;;;;;12.77;3.78;;;;;;;-0.63;100.00;101089.13;10407651;28;20081;-73
2023/12/15 07:15:52;;;;;;;14.80;3.70;;;;;;;-0.67;100.00;101094.59;10407143;28;20500;-70
2023/12/15 07:20:53;;;;;;;16.63;3.67;;;;;;;-1.21;100.00;100991.22;10406677;28;20053;-71
2023/12/15 07:25:54;;;;;;;24.02;3.80;;;;;;;-0.64;100.00;101084.00;10407090;28;20041;-70
2023/12/15 07:30:55;;;;;;;13.82;2.65;;;;;;;-0.84;100.00;101025.00;10407100;28;20038;-71
2023/12/15 07:35:55;;;;;;;10.30;2.85;;;;;;;-0.85;100.00;101003.31;10406406;28;20041;-71
2023/12/15 07:40:56;;;;;;;11.77;2.60;;;;;;;-0.39;100.00;101041.81;10405913;28;20042;-71
2023/12/15 07:45:57;;;;;;;11.55;2.75;;;;;;;-0.39;100.00;101052.25;10406049;28;20061;-71
2023/12/15 07:50:58;;;;;;;17.35;3.40;;;;;;;-0.73;100.00;101002.66;10406791;28;20061;-71
2023/12/15 07:55:58;;;;;;;16.52;3.15;;;;;;;-0.33;100.00;101047.59;10406115;28;20053;-71
2023/12/15 08:00:59;;;;;;;11.68;2.60;;;;;;;-0.39;100.00;101057.47;10406101;28;20459;-70
2023/12/15 08:06:00;;;;;;;8.18;2.80;;;;;;;-0.34;100.00;101050.25;10398373;28;20148;-70
2023/12/15 08:11:01;;;;;;;13.88;3.15;;;;;;;-0.53;100.00;100998.19;10370849;28;20046;-70
2023/12/15 08:16:03;;;;;;;11.45;2.92;;;;;;;-0.18;100.00;101030.25;10372383;28;20046;-70
2023/12/15 08:21:04;;;;;;;9.32;2.65;;;;;;;-0.02;100.00;101022.44;10371880;28;20041;-70
2023/12/15 08:26:05;;;;;;;15.27;2.60;;;;;;;0.13;100.00;101011.13;10371286;28;20045;-71
2023/12/15 08:31:06;;;;;;;14.75;3.53;;;;;;;0.00;100.00;101002.31;10371485;28;20553;-70
2023/12/15 08:36:08;;;;;;;12.85;3.08;;;;;;;-0.22;100.00;100973.88;10370955;28;20509;-74
2023/12/15 08:41:10;;;;;;;12.85;3.22;;;;;;;-0.01;100.00;101001.44;10370950;28;20417;-70
2023/12/15 08:46:11;;;;;;;16.85;3.88;;;;;;;-0.24;100.00;100947.00;10370565;28;20124;-71
2023/12/15 08:51:12;;;;;;;15.52;3.65;;;;;;;0.09;100.00;100975.69;10370854;28;20195;-71
2023/12/15 08:56:12;;;;;;;16.42;3.35;;;;;;;-0.23;100.00;100927.81;10370825;28;20041;-71
2023/12/15 09:01:13;;;;;;;14.68;3.38;;;;;;;-0.04;100.00;100980.72;10370778;28;20489;-69
2023/12/15 09:06:14;;;;;;;10.55;3.35;;;;;;;-0.05;100.00;100986.03;10370487;28;20034;-70
2023/12/15 09:11:15;;;;;;;22.08;3.78;;;;;;;-0.19;100.00;100918.88;10370273;28;20091;-71
2023/12/15 09:16:16;;;;;;;10.27;3.13;;;;;;;0.15;100.00;100956.19;10370400;28;20118;-68
2023/12/15 09:21:17;;;;;;;13.40;3.50;;;;;;;-0.25;100.00;100893.13;10369932;28;20085;-70
2023/12/15 09:26:18;;;;;;;14.35;3.97;;;;;;;0.13;100.00;100943.22;10369874;28;20504;-69
2023/12/15 09:31:19;;;;;;;22.15;4.50;;;;;;;-0.06;100.00;100921.66;10369703;28;20493;-69
2023/12/15 09:36:20;;;;;;;13.43;3.60;;;;;;;-0.02;100.00;100910.13;10369559;28;20042;-70
2023/12/15 09:41:21;;;;;;;10.68;3.38;;;;;;;-0.03;100.00;100909.28;10369873;28;20098;-69
2023/12/15 09:46:22;;;;;;;14.27;4.47;;;;;;;-0.17;100.00;100890.94;10368808;28;20046;-69
2023/12/15 09:51:25;;;;;;;15.57;3.97;;;;;;;-0.18;100.00;100894.47;10369418;28;20200;-70
2023/12/15 09:56:26;;;;;;;14.10;3.47;;;;;;;-0.13;100.00;100865.47;10369114;28;20046;-70
2023/12/15 10:01:27;;;;;;;13.45;3.78;;;;;;;-0.17;100.00;100869.19;10368671;28;20052;-69
2023/12/15 10:06:28;;;;;;;18.83;3.10;;;;;;;-0.02;100.00;100891.84;10368961;28;20136;-69
2023/12/15 10:11:33;;;;;;;16.60;4.05;;;;;;;0.11;100.00;100894.59;10367804;28;20049;-69
2023/12/15 10:16:35;;;;;;;14.88;3.78;;;;;;;-0.27;100.00;100838.38;10368826;28;20057;-69
2023/12/15 10:21:36;;;;;;;14.68;4.00;;;;;;;-0.01;100.00;100889.13;10367923;28;20044;-70
2023/12/15 10:26:37;;;;;;;14.15;3.83;;;;;;;-0.05;100.00;100892.00;10368443;28;20065;-71
2023/12/15 10:31:38;;;;;;;13.88;4.20;;;;;;;-0.09;100.00;100903.53;10367763;28;20074;-69
2023/12/15 10:36:44;;;;;;;14.75;4.05;;;;;;;-0.10;100.00;100887.03;10367151;28;20117;-69
2023/12/15 10:41:46;;;;;;;8.63;3.75;;;;;;;-0.39;100.00;100823.41;10366962;28;20138;-69
2023/12/15 10:46:47;;;;;;;16.77;4.25;;;;;;;-0.18;100.00;100868.38;10366944;28;20497;-70
2023/12/15 10:51:50;;;;;;;18.55;4.60;;;;;;;-0.33;100.00;100820.47;10367771;28;20061;-70
2023/12/15 10:56:51;;;;;;;13.35;4.53;;;;;;;-0.46;100.00;100809.00;10366493;28;20056;-69
2023/12/15 11:01:52;;;;;;;18.85;4.40;;;;;;;-0.22;100.00;100858.16;10366370;28;20037;-69
2023/12/15 11:06:53;;;;;;;8.55;3.75;;;;;;;-0.30;100.00;100827.25;10366048;28;20046;-70
2023/12/15 11:12:33;;;;;;;13.43;3.83;;;;;;;-0.18;100.00;100863.16;10365404;28;20042;-70
2023/12/15 11:17:41;;;;;;;12.93;3.92;;;;;;;-0.17;100.00;100853.53;10364679;28;20470;-69
2023/12/15 11:22:47;;;;;;;13.52;3.53;;;;;;;-0.48;100.00;100803.91;10365844;28;20137;-70
2023/12/15 11:28:11;;;;;;;12.45;3.05;;;;;;;-0.26;100.00;100847.06;10365809;28;20413;-70
2023/12/15 11:33:24;;;;;;;11.90;3.50;;;;;;;-0.47;100.00;100816.00;10366044;28;20174;-69
2023/12/15 11:38:26;;;;;;;16.05;3.97;;;;;;;-0.29;100.00;100882.00;10365386;28;20046;-70
2023/12/15 11:43:31;;;;;;;10.63;3.55;;;;;;;-0.48;100.00;100870.88;10367879;28;20049;-71
2023/12/15 11:48:34;;;;;;;10.50;3.50;;;;;;;-0.24;100.00;100933.94;10372890;28;20459;-70
2023/12/15 11:53:38;;;;;;;15.25;3.47;;;;;;;-0.30;100.00;100921.25;10373319;28;20089;-71
2023/12/15 11:58:41;;;;;;;11.25;3.40;;;;;;;-0.21;100.00;100902.44;10372861;28;20045;-71
2023/12/15 12:03:43;;;;;;;13.00;3.40;;;;;;;-0.17;100.00;100911.81;10372330;28;20048;-71
2023/12/15 12:08:44;;;;;;;13.80;3.53;;;;;;;-0.22;100.00;100906.00;10376099;28;20037;-72
2023/12/15 12:13:47;;;;;;;8.25;3.47;;;;;;;-0.21;100.00;100899.84;10384487;28;20049;-70
2023/12/15 12:18:49;;;;;;;13.35;3.50;;;;;;;-0.21;100.00;100907.66;10380267;28;20037;-71
2023/12/15 12:23:50;;;;;;;7.93;3.15;;;;;;;-0.22;100.00;100910.38;10374276;28;20046;-71
2023/12/15 12:28:51;;;;;;;11.40;3.92;;;;;;;-0.56;100.00;100868.72;10353606;28;20050;-70
2023/12/15 12:33:51;;;;;;;8.45;3.58;;;;;;;-0.36;100.00;100905.91;10364882;28;20117;-69
2023/12/15 12:38:52;;;;;;;11.00;3.38;;;;;;;-0.43;100.00;100905.41;10381736;28;20120;-70
2023/12/15 12:43:53;;;;;;;14.32;3.83;;;;;;;-0.22;100.00;100945.16;10393927;28;20048;-70
2023/12/15 12:48:54;;;;;;;12.90;3.92;;;;;;;-0.27;100.00;100908.00;10383390;28;20034;-73
2023/12/15 12:53:55;;;;;;;9.23;3.50;;;;;;;-0.19;100.00;100928.50;10407221;28;20075;-72
2023/12/15 12:58:56;;;;;;;16.42;3.88;;;;;;;-0.22;100.00;100929.50;10370848;28;20038;-72
2023/12/15 13:03:56;;;;;;;17.13;3.80;;;;;;;-0.17;100.00;100942.31;10387499;28;20057;-72
2023/12/15 13:08:57;;;;;;;10.02;3.47;;;;;;;-0.17;100.00;100934.47;10405729;28;20030;-72
2023/12/15 13:13:58;;;;;;;20.90;4.30;;;;;;;-0.17;100.00;100930.09;10402797;28;20094;-73
2023/12/15 13:18:59;;;;;;;16.63;5.32;;;;;;;-0.28;100.00;100908.94;10359787;28;20042;-70
2023/12/15 13:24:00;;;;;;;16.63;5.03;;;;;;;-0.16;100.00;100913.50;10348337;28;20085;-71
2023/12/15 13:29:03;;;;;;;18.90;7.25;;;;;;;-0.12;100.00;100959.41;10406025;28;20045;-71
2023/12/15 13:34:04;;;;;;;10.75;5.03;;;;;;;-0.21;100.00;100946.00;10410484;28;20049;-71
2023/12/15 13:39:05;;;;;;;7.25;3.70;;;;;;;-0.13;100.00;100943.81;10381950;28;20062;-71
2023/12/15 13:44:06;;;;;;;10.30;4.35;;;;;;;-0.24;100.00;100923.50;10355155;27;20051;-70
2023/12/15 13:49:07;;;;;;;12.45;4.15;;;;;;;-0.16;100.00;100955.28;10360693;28;20485;-71
2023/12/15 13:54:09;;;;;;;11.80;4.07;;;;;;;-0.18;100.00;100951.06;10359267;28;20405;-71
2023/12/15 13:59:10;;;;;;;8.77;3.60;;;;;;;-0.12;100.00;100948.97;10359129;28;20410;-70
2023/12/15 14:04:10;;;;;;;12.15;3.60;;;;;;;-0.10;100.00;100960.16;10345441;28;20044;-71
2023/12/15 14:09:12;;;;;;;9.65;3.83;;;;;;;-0.16;100.00;100949.22;10347559;28;20050;-72
2023/12/15 14:14:13;;;;;;;10.45;3.70;;;;;;;-0.50;100.00;100894.47;10349610;28;20041;-71
2023/12/15 14:19:14;;;;;;;13.38;3.75;;;;;;;-0.13;100.00;100955.09;10357237;28;20098;-72
2023/12/15 14:24:18;;;;;;;6.45;3.10;;;;;;;-0.41;100.00;100898.34;10348079;28;20070;-71
2023/12/15 14:29:19;;;;;;;9.35;3.45;;;;;;;-0.07;100.00;100953.94;10344177;28;20042;-71
2023/12/15 14:34:20;;;;;;;11.55;3.78;;;;;;;-0.37;100.00;100885.97;10350797;28;20053;-71
2023/12/15 14:39:20;;;;;;;11.65;3.70;;;;;;;-0.01;100.00;100946.59;10380974;28;20055;-70
2023/12/15 14:44:22;;;;;;;12.57;3.83;;;;;;;-0.33;100.00;100890.09;10407662;28;20501;-71
2023/12/15 14:49:23;;;;;;;10.98;4.30;;;;;;;-0.05;100.00;100931.19;10380060;28;20058;-71
2023/12/15 14:54:23;;;;;;;10.90;4.88;;;;;;;-0.11;100.00;100923.69;10396393;28;20061;-71
2023/12/15 14:59:26;;;;;;;8.45;4.45;;;;;;;0.00;100.00;100947.47;10400350;28;20102;-71
2023/12/15 15:04:27;;;;;;;10.38;4.65;;;;;;;-0.09;100.00;100920.06;10407531;28;20086;-71
2023/12/15 15:09:27;;;;;;;13.70;5.20;;;;;;;-0.10;100.00;100901.88;10400641;28;20068;-71
2023/12/15 15:14:28;;;;;;;13.20;5.20;;;;;;;-0.02;100.00;100916.19;10366431;28;20038;-73
2023/12/15 15:19:30;;;;;;;8.52;5.10;;;;;;;0.02;100.00;100908.16;10384547;28;20102;-71
2023/12/15 15:24:30;;;;;;;10.63;5.32;;;;;;;0.01;100.00;100911.72;10401561;28;20040;-72
2023/12/15 15:29:31;;;;;;;12.68;5.80;;;;;;;-0.24;100.00;100847.78;10374771;28;20052;-71
2023/12/15 15:34:32;;;;;;;13.98;5.97;;;;;;;-0.03;100.00;100870.09;10366020;28;20046;-71
2023/12/15 15:39:33;;;;;;;12.05;5.55;;;;;;;0.10;100.00;100872.00;10365925;28;20072;-70
2023/12/15 15:44:34;;;;;;;11.57;5.28;;;;;;;0.09;100.00;100896.44;10367061;28;20128;-72
2023/12/15 15:49:36;;;;;;;13.52;5.05;;;;;;;0.06;100.00;100894.00;10397167;28;20052;-71
2023/12/15 15:54:45;;;;;;;9.48;4.90;;;;;;;-0.18;100.00;100862.28;10365622;28;20057;-72
2023/12/15 15:59:46;;;;;;;14.43;5.55;;;;;;;0.28;100.00;100920.59;10394232;28;20048;-72
2023/12/15 16:04:47;;;;;;;10.73;5.05;;;;;;;0.25;100.00;100876.34;10406020;28;20041;-71
2023/12/15 16:09:48;;;;;;;10.80;5.82;;;;;;;-0.13;100.00;100815.88;10400051;28;20417;-72
2023/12/15 16:14:50;;;;;;;14.82;6.97;;;;;;;0.11;100.00;100839.72;10364563;28;20045;-71
2023/12/15 16:19:51;;;;;;;12.45;6.47;;;;;;;0.28;100.00;100880.56;10364831;28;20045;-71
2023/12/15 16:24:52;;;;;;;17.23;7.00;;;;;;;0.33;100.00;100868.06;10364775;28;20046;-72
2023/12/15 16:29:54;;;;;;;11.38;6.28;;;;;;;0.35;100.00;100880.09;10367454;28;20049;-71
2023/12/15 16:34:57;;;;;;;14.40;6.78;;;;;;;0.31;100.00;100889.06;10371194;28;20417;-72
2023/12/15 16:39:58;;;;;;;12.30;6.30;;;;;;;-0.28;100.00;100801.91;10370804;28;20037;-71
2023/12/15 16:44:59;;;;;;;11.73;6.65;;;;;;;0.33;100.00;100891.56;10371056;28;20038;-71
2023/12/15 16:50:01;;;;;;;9.55;5.90;;;;;;;0.24;100.00;100890.34;10370876;28;20082;-72
2023/12/15 16:55:03;;;;;;;8.80;5.63;;;;;;;0.29;100.00;100906.59;10370961;28;20042;-72
2023/12/15 17:00:05;;;;;;;9.07;5.18;;;;;;;0.41;100.00;100913.72;10370108;28;20111;-71
2023/12/15 17:05:09;;;;;;;10.73;5.45;;;;;;;0.45;100.00;100940.56;10369166;28;20038;-70
2023/12/15 17:10:11;;;;;;;10.48;4.93;;;;;;;0.44;100.00;100938.84;10384036;28;20050;-71
2023/12/15 17:15:14;;;;;;;13.30;5.72;;;;;;;0.49;100.00;100928.13;10410116;28;20045;-71
2023/12/15 17:20:21;;;;;;;9.23;6.10;;;;;;;0.25;100.00;100867.69;10410291;28;20046;-71
2023/12/15 17:25:23;;;;;;;10.38;6.70;;;;;;;0.04;100.00;100831.41;10404495;28;20096;-70
2023/12/15 17:30:30;;;;;;;9.60;6.13;;;;;;;0.43;100.00;100911.03;10410467;28;20128;-70
2023/12/15 17:35:32;;;;;;;9.85;6.18;;;;;;;0.35;100.00;100882.72;10371720;28;20057;-72
2023/12/15 17:40:33;;;;;;;11.57;6.68;;;;;;;0.41;100.00;100903.28;10368596;28;20083;-70
2023/12/15 17:45:38;;;;;;;11.07;6.55;;;;;;;0.36;100.00;100873.09;10368121;28;20501;-71
2023/12/15 17:50:44;;;;;;;12.15;6.68;;;;;;;0.16;100.00;100835.09;10369289;28;20054;-71
2023/12/15 17:55:46;;;;;;;11.02;7.53;;;;;;;0.44;100.00;100902.25;10369935;28;20540;-71
2023/12/15 18:00:49;;;;;;;12.18;7.97;;;;;;;0.09;100.00;100828.50;10368223;28;20029;-71
2023/12/15 18:05:53;;;;;;;14.98;8.05;;;;;;;0.39;100.00;100886.84;10369362;28;20451;-72
2023/12/15 18:10:58;;;;;;;12.90;8.50;;;;;;;0.36;100.00;100886.16;10367832;28;20038;-71
2023/12/15 18:16:00;;;;;;;17.25;9.88;;;;;;;0.40;100.00;100890.31;10368738;28;20041;-71
2023/12/15 18:21:02;;;;;;;13.43;9.60;;;;;;;0.39;100.00;100905.16;10368726;28;20050;-72
2023/12/15 18:26:04;;;;;;;15.73;9.52;;;;;;;0.40;100.00;100879.84;10367760;28;20527;-72
2023/12/15 18:31:05;;;;;;;15.88;9.93;;;;;;;0.37;100.00;100872.19;10367175;28;20091;-71
2023/12/15 18:36:08;;;;;;;13.48;9.00;;;;;;;0.25;100.00;100847.63;10367291;28;20069;-72
2023/12/15 18:41:22;;;;;;;16.80;11.27;;;;;;;0.36;100.00;100860.03;10367213;28;20114;-72
2023/12/15 18:46:24;;;;;;;12.82;9.25;;;;;;;0.07;100.00;100814.72;10366820;28;20072;-72
2023/12/15 18:51:24;;;;;;;16.25;9.73;;;;;;;0.37;100.00;100859.97;10366471;28;20435;-71
2023/12/15 18:56:25;;;;;;;13.80;9.77;;;;;;;0.41;100.00;100866.69;10366509;28;20052;-71
2023/12/15 19:01:29;;;;;;;14.02;9.50;;;;;;;0.08;100.00;100814.63;10366940;28;20041;-71
2023/12/15 19:06:30;;;;;;;15.40;10.50;;;;;;;0.34;100.00;100860.13;10366465;28;20073;-71
2023/12/15 19:11:35;;;;;;;16.27;10.75;;;;;;;0.34;100.00;100865.38;10366096;28;20068;-72
2023/12/15 19:16:36;;;;;;;17.48;10.93;;;;;;;0.28;100.00;100855.28;10366469;28;20493;-72
2023/12/15 19:21:36;;;;;;;19.58;11.68;;;;;;;0.42;100.00;100873.59;10367010;28;20053;-72
2023/12/15 19:26:40;;;;;;;17.88;11.10;;;;;;;0.40;100.00;100857.16;10365822;28;20455;-72
2023/12/15 19:31:40;;;;;;;18.17;10.77;;;;;;;0.41;100.00;100863.22;10366652;28;20046;-72
2023/12/15 19:36:41;;;;;;;24.55;11.15;;;;;;;0.47;100.00;100888.16;10366629;28;20481;-72
2023/12/15 19:41:43;;;;;;;15.13;10.10;;;;;;;0.44;100.00;100889.19;10365861;28;20041;-72
2023/12/15 19:46:43;;;;;;;18.52;11.38;;;;;;;0.37;100.00;100888.72;10365895;28;20041;-72
2023/12/15 19:51:45;;;;;;;18.38;10.95;;;;;;;0.52;100.00;100899.22;10365527;28;20104;-72
2023/12/15 19:56:46;;;;;;;19.20;10.88;;;;;;;0.33;100.00;100873.28;10365556;28;20042;-72
2023/12/15 20:01:47;;;;;;;16.95;10.95;;;;;;;0.48;100.00;100905.53;10365454;28;20049;-72
2023/12/15 20:06:48;;;;;;;22.73;10.77;;;;;;;0.42;100.00;100891.91;10371309;28;20045;-72
2023/12/15 20:11:48;;;;;;;17.58;11.30;;;;;;;0.56;100.00;100911.16;10371819;28;20052;-74
2023/12/15 20:16:50;;;;;;;17.52;11.48;;;;;;;0.63;100.00;100907.25;10371694;28;20042;-72
2023/12/15 20:21:50;;;;;;;36.63;12.38;;;;;;;0.28;100.00;100850.03;10371526;28;20042;-72
2023/12/15 20:26:51;;;;;;;24.08;12.18;;;;;;;0.66;100.00;100902.69;10371749;28;20527;-73
2023/12/15 20:31:52;;;;;;;28.20;12.25;;;;;;;0.70;100.00;100908.56;10382832;28;20443;-72
2023/12/15 20:36:53;;;;;;;18.15;12.50;;;;;;;0.87;100.00;100929.34;10396207;28;20042;-72
2023/12/15 20:41:54;;;;;;;21.20;13.13;;;;;;;0.82;100.00;100922.69;10372831;28;20048;-72
2023/12/15 20:46:55;;;;;;;22.30;11.30;;;;;;;0.60;100.00;100897.81;10371357;28;20042;-72
2023/12/15 20:51:55;;;;;;;17.45;11.38;;;;;;;0.52;100.00;100880.91;10370265;28;20140;-72
2023/12/15 20:56:56;;;;;;;39.72;11.77;;;;;;;0.80;100.00;100930.63;10386677;28;20041;-72
2023/12/15 21:01:57;;;;;;;22.33;11.63;;;;;;;0.73;100.00;100926.69;10410973;28;20078;-72
2023/12/15 21:06:58;;;;;;;16.35;10.80;;;;;;;0.64;100.00;100898.47;10411580;28;20045;-70
2023/12/15 21:11:59;;;;;;;16.17;11.07;;;;;;;0.67;100.00;100898.31;10411099;28;20045;-70
2023/12/15 21:17:02;;;;;;;31.85;11.73;;;;;;;0.87;100.00;100954.66;10410252;28;20044;-70
2023/12/15 21:22:03;;;;;;;20.50;11.43;;;;;;;0.86;100.00;100934.66;10411536;28;20041;-70
2023/12/15 21:27:04;;;;;;;16.25;10.77;;;;;;;0.82;100.00;100928.75;10410171;28;20037;-70
2023/12/15 21:32:05;;;;;;;24.27;12.00;;;;;;;0.80;100.00;100922.78;10538689;28;20032;-70
2023/12/15 21:37:06;;;;;;;25.98;11.73;;;;;;;0.56;100.00;100898.91;10583123;28;20043;-71
2023/12/15 21:42:07;;;;;;;18.08;11.25;;;;;;;0.68;100.00;100926.94;10584022;28;20059;-71
2023/12/15 21:47:08;;;;;;;26.95;11.65;;;;;;;0.76;100.00;100942.22;10583143;28;20119;-71
2023/12/15 21:52:09;;;;;;;30.10;11.02;;;;;;;0.76;100.00;100962.28;10582930;28;20150;-72
2023/12/15 21:57:10;;;;;;;31.02;11.82;;;;;;;0.65;100.00;100955.06;10583174;28;20047;-72
2023/12/15 22:02:11;;;;;;;33.28;12.55;;;;;;;0.59;100.00;100929.28;10582742;28;20462;-71
2023/12/15 22:07:12;;;;;;;28.98;11.55;;;;;;;0.47;100.00;100896.00;10582273;28;20043;-71
2023/12/15 22:12:12;;;;;;;23.48;11.35;;;;;;;0.67;100.00;100906.16;10581448;28;20035;-71
2023/12/15 22:17:13;;;;;;;47.38;13.48;;;;;;;0.10;100.00;100838.06;10581631;28;20040;-72
2023/12/15 22:22:14;;;;;;;25.30;13.13;;;;;;;0.75;100.00;100961.47;10582286;28;20035;-71
2023/12/15 22:27:15;;;;;;;24.10;13.85;;;;;;;0.75;100.00;100977.16;10581157;28;20495;-71
2023/12/15 22:32:17;;;;;;;20.25;12.90;;;;;;;0.36;100.00;100930.59;10580686;28;20126;-71
2023/12/15 22:37:18;;;;;;;32.28;12.40;;;;;;;0.74;100.00;100983.28;10581838;28;20040;-71
2023/12/15 22:42:18;;;;;;;27.75;12.13;;;;;;;0.39;100.00;100920.84;10579817;28;20040;-72